createdAt,value
2024-03-10T00:03:42.571Z,37.45
2024-03-10T00:08:44.655Z,32.53
2024-03-10T00:13:46.133Z,32.65
2024-03-10T00:18:47.615Z,22.83
2024-03-10T00:23:49.777Z,42.10
2024-03-10T00:28:51.295Z,39.50
2024-03-10T00:33:53.091Z,40.00
2024-03-10T00:38:54.885Z,35.47
2024-03-10T00:43:56.378Z,40.83
2024-03-10T00:48:57.906Z,30.80
2024-03-10T00:53:59.494Z,38.22
2024-03-10T00:59:01.047Z,35.70
2024-03-10T01:04:02.519Z,35.45
2024-03-10T01:09:05.224Z,41.63
2024-03-10T01:14:06.723Z,36.08
2024-03-10T01:19:12.488Z,35.13
2024-03-10T01:24:14.512Z,36.08
2024-03-10T01:29:17.610Z,35.28
2024-03-10T01:34:20.691Z,40.22
2024-03-10T01:39:23.848Z,38.97
2024-03-10T01:44:25.427Z,33.60
2024-03-10T01:49:27.866Z,37.67
2024-03-10T01:54:34.428Z,39.95
2024-03-10T01:59:36.150Z,33.75
2024-03-10T02:04:39.037Z,30.13
2024-03-10T02:09:40.748Z,36.25
2024-03-10T02:14:42.533Z,38.67
2024-03-10T02:19:44.032Z,37.47
2024-03-10T02:24:49.036Z,30.70
2024-03-10T02:30:09.171Z,34.72
2024-03-10T02:35:29.069Z,32.58
2024-03-10T02:40:49.229Z,39.35
2024-03-10T02:46:09.061Z,21.23
2024-03-10T02:51:10.497Z,37.53
2024-03-10T02:56:12.017Z,36.75
2024-03-10T03:01:17.389Z,37.60
2024-03-10T03:06:19.177Z,38.90
2024-03-10T03:11:21.158Z,40.95
2024-03-10T03:16:22.770Z,40.75
2024-03-10T03:21:24.867Z,29.80
2024-03-10T03:26:26.621Z,37.72
2024-03-10T03:31:28.123Z,37.85
2024-03-10T03:36:29.600Z,39.38
2024-03-10T03:41:31.068Z,37.35
2024-03-10T03:46:32.571Z,34.83
2024-03-10T03:51:34.047Z,34.47
2024-03-10T03:56:35.556Z,40.28
2024-03-10T04:01:37.819Z,37.60
2024-03-10T04:06:40.088Z,38.85
2024-03-10T04:11:41.627Z,36.47
2024-03-10T04:16:46.177Z,38.45
2024-03-10T04:21:48.972Z,29.83
2024-03-10T04:26:50.994Z,34.95
2024-03-10T04:31:54.123Z,37.42
2024-03-10T04:36:55.586Z,37.33
2024-03-10T04:41:57.063Z,24.45
2024-03-10T04:46:58.857Z,34.33
2024-03-10T04:52:01.611Z,29.05
2024-03-10T05:02:04.888Z,36.50
2024-03-10T05:07:06.394Z,36.17
2024-03-10T05:12:10.124Z,32.45
2024-03-10T05:17:12.803Z,28.83
2024-03-10T05:22:14.497Z,33.38
2024-03-10T05:27:18.527Z,30.38
2024-03-10T05:32:20.368Z,30.55
2024-03-10T05:37:23.490Z,36.25
2024-03-10T05:42:25.061Z,38.15
2024-03-10T05:47:28.360Z,32.50
2024-03-10T05:52:29.860Z,35.38
2024-03-10T05:57:31.798Z,35.40
2024-03-10T06:02:33.702Z,35.17
2024-03-10T06:07:35.161Z,35.38
2024-03-10T06:12:38.637Z,35.08
2024-03-10T06:17:42.625Z,27.80
2024-03-10T06:23:02.978Z,28.00
2024-03-10T06:28:04.798Z,26.48
2024-03-10T06:33:06.305Z,27.40
2024-03-10T06:38:08.504Z,24.23
2024-03-10T06:43:10.055Z,29.05
2024-03-10T06:48:14.437Z,25.75
2024-03-10T06:53:15.929Z,32.13
2024-03-10T06:58:18.377Z,31.23
2024-03-10T07:03:20.003Z,27.92
2024-03-10T07:08:22.246Z,29.23
2024-03-10T07:13:24.171Z,26.55
2024-03-10T07:18:25.738Z,28.40
2024-03-10T07:23:27.380Z,25.52
2024-03-10T07:28:28.891Z,27.92
2024-03-10T07:33:30.506Z,29.17
2024-03-10T07:38:32.062Z,18.85
2024-03-10T07:43:33.582Z,28.60
2024-03-10T07:48:37.029Z,27.95
2024-03-10T07:53:38.502Z,23.38
2024-03-10T07:58:40.201Z,21.85
2024-03-10T08:03:42.167Z,30.05
2024-03-10T08:08:43.865Z,29.00
2024-03-10T08:13:46.025Z,27.20
2024-03-10T08:18:49.745Z,28.27
2024-03-10T08:23:52.594Z,25.65
2024-03-10T08:28:54.086Z,24.70
2024-03-10T08:33:55.874Z,28.63
2024-03-10T08:38:57.510Z,21.20
2024-03-10T08:44:01.244Z,25.48
2024-03-10T08:49:03.278Z,23.08
2024-03-10T08:54:09.077Z,23.15
2024-03-10T08:59:13.176Z,23.05
2024-03-10T09:04:15.164Z,20.65
2024-03-10T09:09:19.664Z,23.85
2024-03-10T09:14:21.434Z,21.00
2024-03-10T09:19:22.953Z,23.63
2024-03-10T09:24:24.460Z,16.77
2024-03-10T09:29:28.832Z,23.55
2024-03-10T09:34:31.549Z,20.02
2024-03-10T09:39:34.062Z,19.10
2024-03-10T09:44:37.583Z,17.83
2024-03-10T09:49:40.055Z,20.92
2024-03-10T09:54:42.105Z,17.50
2024-03-10T09:59:45.399Z,20.27
2024-03-10T10:04:58.352Z,24.63
2024-03-10T10:10:05.025Z,23.33
2024-03-10T10:15:08.759Z,19.92
2024-03-10T10:20:13.241Z,19.50
2024-03-10T10:25:16.021Z,22.67
2024-03-10T10:30:20.382Z,22.15
2024-03-10T10:35:23.207Z,19.67
2024-03-10T10:40:24.723Z,15.77
2024-03-10T10:45:28.392Z,20.95
2024-03-10T10:50:35.235Z,20.25
2024-03-10T10:55:41.216Z,18.75
2024-03-10T11:00:51.021Z,28.48
2024-03-10T11:06:09.446Z,19.17
2024-03-10T11:11:15.873Z,20.23
2024-03-10T11:16:25.848Z,16.83
2024-03-10T11:21:27.521Z,25.95
2024-03-10T11:26:29.626Z,19.55
2024-03-10T11:31:34.207Z,18.45
2024-03-10T11:36:38.166Z,18.85
2024-03-10T11:41:39.857Z,18.02
2024-03-10T11:51:45.146Z,14.38
2024-03-10T11:56:51.835Z,17.48
2024-03-10T12:01:54.309Z,16.48
2024-03-10T12:06:55.806Z,14.27
2024-03-10T12:11:58.318Z,47.00
2024-03-10T12:17:00.140Z,15.50
2024-03-10T12:22:02.495Z,14.77
2024-03-10T12:27:07.668Z,12.32
2024-03-10T12:32:12.583Z,15.80
2024-03-10T12:37:14.150Z,20.23
2024-03-10T12:42:16.165Z,14.05
2024-03-10T12:47:18.043Z,14.93
2024-03-10T12:52:19.538Z,11.43
2024-03-10T12:57:22.618Z,12.35
2024-03-10T13:02:24.464Z,10.10
2024-03-10T13:07:26.508Z,17.98
2024-03-10T13:12:28.103Z,13.88
2024-03-10T13:17:30.422Z,17.17
2024-03-10T13:22:32.014Z,15.40
2024-03-10T13:27:36.397Z,56.13
2024-03-10T13:32:38.135Z,12.90
2024-03-10T13:37:39.760Z,20.25
2024-03-10T13:42:46.097Z,19.67
2024-03-10T13:47:49.078Z,54.20
2024-03-10T13:52:50.793Z,14.05
2024-03-10T13:57:55.084Z,11.80
2024-03-10T14:02:57.623Z,10.93
2024-03-10T14:08:00.619Z,11.80
2024-03-10T14:13:04.371Z,15.85
2024-03-10T14:18:08.310Z,11.20
2024-03-10T14:23:09.996Z,10.98
2024-03-10T14:28:11.592Z,27.88
2024-03-10T14:33:13.570Z,13.43
2024-03-10T14:38:15.168Z,13.10
2024-03-10T14:48:20.149Z,10.82
2024-03-10T14:53:22.762Z,10.32
2024-03-10T14:58:24.964Z,11.68
2024-03-10T15:03:27.672Z,10.50
2024-03-10T15:08:29.298Z,10.18
2024-03-10T15:18:35.212Z,9.23
2024-03-10T15:23:38.275Z,10.25
2024-03-10T15:28:39.734Z,11.85
2024-03-10T15:33:41.293Z,10.55
2024-03-10T15:38:42.952Z,10.82
2024-03-10T15:48:46.750Z,15.85
2024-03-10T15:53:49.383Z,11.05
2024-03-10T15:58:54.699Z,11.93
2024-03-10T16:04:02.152Z,12.40
2024-03-10T16:09:05.816Z,11.75
2024-03-10T16:14:12.322Z,10.32
2024-03-10T16:19:15.087Z,9.13
2024-03-10T16:24:16.664Z,10.93
2024-03-10T16:29:19.318Z,11.30
2024-03-10T16:34:20.844Z,9.25
2024-03-10T16:39:24.224Z,11.30
2024-03-10T16:44:28.019Z,8.82
2024-03-10T16:49:30.663Z,10.38
2024-03-10T16:54:35.364Z,18.50
2024-03-10T16:59:36.995Z,10.45
2024-03-10T17:04:38.767Z,10.30
2024-03-10T17:09:40.523Z,11.52
2024-03-10T17:14:42.086Z,10.82
2024-03-10T17:19:43.546Z,12.55
2024-03-10T17:24:46.376Z,11.50
2024-03-10T17:29:47.887Z,14.82
2024-03-10T17:34:50.013Z,17.75
2024-03-10T17:39:55.409Z,9.00
2024-03-10T17:45:16.926Z,10.98
2024-03-10T17:50:19.796Z,11.68
2024-03-10T17:55:21.440Z,16.45
2024-03-10T18:00:23.750Z,8.35
2024-03-10T18:05:28.468Z,10.60
2024-03-10T18:10:29.973Z,14.45
2024-03-10T18:15:31.384Z,10.07
2024-03-10T18:20:32.941Z,16.52
2024-03-10T18:25:35.088Z,12.75
2024-03-10T18:30:41.102Z,9.32
2024-03-10T18:35:42.727Z,12.57
2024-03-10T18:40:51.517Z,10.43
2024-03-10T18:45:52.984Z,15.27
2024-03-10T18:51:02.145Z,39.40
2024-03-10T18:56:09.498Z,11.27
2024-03-10T19:01:12.315Z,14.85
2024-03-10T19:06:16.990Z,12.55
2024-03-10T19:11:19.104Z,12.30
2024-03-10T19:21:24.391Z,14.73
2024-03-10T19:26:26.017Z,34.22
2024-03-10T19:31:27.631Z,14.57
2024-03-10T19:36:32.173Z,21.75
2024-03-10T19:41:33.817Z,13.95
2024-03-10T19:46:35.357Z,10.35
2024-03-10T19:51:37.689Z,13.60
2024-03-10T19:56:39.296Z,13.95
2024-03-10T20:01:40.804Z,10.07
2024-03-10T20:06:42.248Z,21.02
2024-03-10T20:11:44.571Z,12.23
2024-03-10T20:16:46.542Z,10.00
2024-03-10T20:21:48.403Z,10.35
2024-03-10T20:26:49.853Z,16.10
2024-03-10T20:31:51.534Z,11.45
2024-03-10T20:36:53.048Z,11.68
2024-03-10T20:41:54.560Z,22.92
2024-03-10T20:46:56.104Z,14.77
2024-03-10T20:51:57.806Z,14.88
2024-03-10T20:56:59.261Z,10.60
2024-03-10T21:02:01.635Z,15.50
2024-03-10T21:07:05.700Z,17.50
2024-03-10T21:12:08.546Z,14.65
2024-03-10T21:17:10.610Z,13.93
2024-03-10T21:27:15.690Z,12.48
2024-03-10T21:32:17.377Z,12.02
2024-03-10T21:37:18.896Z,9.35
2024-03-10T21:42:20.863Z,11.98
2024-03-10T21:47:24.948Z,15.45
2024-03-10T21:52:26.896Z,15.50
2024-03-10T21:57:28.393Z,13.32
2024-03-10T22:02:29.880Z,14.32
2024-03-10T22:07:31.364Z,14.02
2024-03-10T22:12:33.001Z,13.50
2024-03-10T22:17:34.788Z,11.00
2024-03-10T22:22:36.385Z,10.45
2024-03-10T22:27:39.541Z,25.95
2024-03-10T22:32:41.210Z,12.60
2024-03-10T22:37:45.103Z,14.20
2024-03-10T22:42:49.354Z,13.18
2024-03-10T22:47:54.110Z,48.13
2024-03-10T22:52:56.999Z,12.98
2024-03-10T22:58:02.252Z,13.70
2024-03-10T23:03:07.490Z,14.10
2024-03-10T23:08:14.093Z,14.60
2024-03-10T23:13:17.085Z,13.65
2024-03-10T23:18:25.034Z,13.35
2024-03-10T23:23:27.307Z,13.25
2024-03-10T23:28:28.740Z,13.52
2024-03-10T23:33:30.840Z,15.52
2024-03-10T23:38:33.086Z,15.80
2024-03-10T23:43:34.565Z,15.68
2024-03-10T23:48:36.748Z,13.77
2024-03-10T23:53:41.573Z,12.02
2024-03-10T23:58:43.214Z,12.25
